Time;durP1;ratioP1;P1;durP2;ratioP2;P2;SDS_P1;SDS_P2;PMS_P1;PMS_P2;Temp;Humidity;BMP_temperature;BMP_pressure;BME280_temperature;BME280_humidity;BME280_pressure;Samples;Min_cycle;Max_cycle;Signal;HPM_P1;HPM_P2
2021/08/01 05:02:21;;;;;;;9.18;7.65;;;;;;;31.26;51.78;94660.09;5326553;22;20060;-78
2021/08/01 05:04:47;;;;;;;8.95;7.45;;;;;;;31.42;50.78;94663.16;5015009;28;20039;-78
2021/08/01 05:07:12;;;;;;;10.13;7.18;;;;;;;32.34;48.57;94667.56;4999930;28;20029;-79
2021/08/01 05:09:38;;;;;;;7.85;7.18;;;;;;;32.97;46.71;94663.47;5032274;28;20032;-78
2021/08/01 05:12:03;;;;;;;7.63;6.80;;;;;;;33.04;44.29;94661.88;5031863;28;20057;-79
2021/08/01 05:14:30;;;;;;;8.27;7.25;;;;;;;33.98;43.12;94670.75;5032836;28;20017;-79
2021/08/01 05:16:56;;;;;;;7.95;6.55;;;;;;;34.39;42.98;94668.16;5031241;28;20015;-79
2021/08/01 05:19:21;;;;;;;9.55;7.00;;;;;;;33.32;45.48;94665.81;5032722;28;20029;-79
2021/08/01 05:21:47;;;;;;;7.15;6.43;;;;;;;34.05;43.05;94661.06;5031320;28;20025;-78
2021/08/01 05:24:12;;;;;;;6.97;6.47;;;;;;;34.67;42.97;94658.47;5050341;28;20100;-79
2021/08/01 05:26:38;;;;;;;7.80;6.43;;;;;;;33.39;43.10;94655.31;5030674;28;20025;-78
2021/08/01 05:29:04;;;;;;;7.25;6.55;;;;;;;34.40;41.91;94656.28;5015025;28;20083;-78
2021/08/01 05:31:29;;;;;;;8.38;6.95;;;;;;;35.02;42.18;94650.09;5015494;28;20040;-78
2021/08/01 05:33:55;;;;;;;7.47;6.80;;;;;;;35.20;41.42;94646.13;5049353;28;20017;-79
2021/08/01 05:36:20;;;;;;;8.00;7.32;;;;;;;33.76;43.73;94651.09;5016143;28;20040;-78
2021/08/01 05:38:46;;;;;;;7.63;7.13;;;;;;;34.29;41.31;94649.72;5030686;28;20147;-78
2021/08/01 05:41:15;;;;;;;8.32;7.57;;;;;;;34.88;41.36;94653.84;5032868;28;20029;-78
2021/08/01 05:43:42;;;;;;;9.23;7.35;;;;;;;35.26;39.93;94661.75;5030912;28;20107;-78
2021/08/01 05:46:11;;;;;;;10.18;7.55;;;;;;;35.97;39.65;94656.78;5032515;28;20739;-79
2021/08/01 05:48:37;;;;;;;8.82;7.88;;;;;;;33.97;43.42;94658.44;5032014;28;20040;-79
2021/08/01 05:51:09;;;;;;;11.07;7.32;;;;;;;34.63;42.32;94664.84;5014785;28;20032;-78
2021/08/01 05:53:34;;;;;;;8.70;7.82;;;;;;;35.68;41.27;94672.38;5032387;28;20032;-79
2021/08/01 05:56:10;;;;;;;9.05;8.15;;;;;;;35.55;40.69;94685.03;5030936;28;20033;-79
2021/08/01 05:58:36;;;;;;;9.18;7.47;;;;;;;35.26;40.96;94685.19;5015814;28;20103;-79
2021/08/01 06:01:15;;;;;;;9.15;7.68;;;;;;;35.72;40.60;94684.09;5013545;28;20083;-78
2021/08/01 06:03:41;;;;;;;8.98;7.80;;;;;;;36.27;40.61;94683.56;5015515;28;20505;-79
2021/08/01 06:06:11;;;;;;;9.38;8.02;;;;;;;36.38;38.73;94684.69;5031754;28;20051;-78
2021/08/01 06:08:38;;;;;;;9.70;7.30;;;;;;;35.57;40.40;94682.81;5365976;23;20412;-78
2021/08/01 06:11:04;;;;;;;7.88;7.18;;;;;;;35.83;40.00;94686.03;4988589;28;20060;-77
2021/08/01 06:13:30;;;;;;;7.60;7.10;;;;;;;36.60;38.51;94686.91;4990848;28;20049;-77
2021/08/01 06:15:55;;;;;;;8.63;7.70;;;;;;;36.22;40.40;94683.78;4988806;28;20034;-79
2021/08/01 06:18:21;;;;;;;11.27;8.60;;;;;;;36.80;38.80;94682.44;4989689;28;20026;-78
2021/08/01 06:20:46;;;;;;;8.95;8.25;;;;;;;36.37;39.73;94691.19;4990194;28;20505;-79
2021/08/01 06:23:12;;;;;;;9.18;8.30;;;;;;;35.71;40.53;94693.28;4990812;28;20019;-78
2021/08/01 06:25:38;;;;;;;9.48;8.30;;;;;;;35.11;39.77;94681.25;4990399;28;20038;-79
2021/08/01 06:28:04;;;;;;;9.90;9.00;;;;;;;35.57;40.92;94690.91;4990032;28;20022;-77
2021/08/01 06:30:30;;;;;;;10.00;9.00;;;;;;;36.00;40.27;94685.00;4990407;28;20274;-78
2021/08/01 06:32:55;;;;;;;11.15;9.00;;;;;;;36.03;39.33;94673.53;5004560;28;20389;-78
2021/08/01 06:35:21;;;;;;;10.27;9.27;;;;;;;36.52;39.07;94692.38;4990387;28;20400;-77
2021/08/01 06:37:46;;;;;;;11.13;9.05;;;;;;;35.76;39.45;94683.09;4984254;28;20070;-78
2021/08/01 06:40:12;;;;;;;10.18;9.13;;;;;;;36.79;37.97;94678.97;5001460;28;20076;-78
2021/08/01 06:42:37;;;;;;;10.60;9.13;;;;;;;36.46;39.67;94681.84;4986791;28;20415;-78
2021/08/01 06:45:03;;;;;;;9.15;8.27;;;;;;;36.26;38.80;94679.28;4989405;28;20025;-78
2021/08/01 06:47:29;;;;;;;10.48;9.10;;;;;;;36.22;39.87;94679.16;5004541;28;20518;-78
2021/08/01 06:49:54;;;;;;;9.50;8.68;;;;;;;37.05;37.44;94677.78;4987269;28;20407;-79
2021/08/01 06:52:19;;;;;;;9.55;8.65;;;;;;;37.22;37.29;94669.34;4990208;28;20041;-79
2021/08/01 06:54:45;;;;;;;10.40;9.18;;;;;;;35.96;39.02;94666.00;4989021;28;20037;-79
2021/08/01 06:57:10;;;;;;;11.38;9.38;;;;;;;34.93;41.19;94663.66;5005180;28;20499;-79
2021/08/01 06:59:36;;;;;;;12.82;9.20;;;;;;;36.98;37.84;94659.41;4989266;28;20566;-78
2021/08/01 07:02:01;;;;;;;13.05;10.27;;;;;;;34.55;41.14;94663.75;4989764;28;20033;-78
2021/08/01 07:04:27;;;;;;;15.32;9.73;;;;;;;32.28;47.04;94655.41;4989219;28;20034;-78
2021/08/01 07:06:52;;;;;;;11.70;10.55;;;;;;;31.95;46.90;94659.59;4988859;28;20399;-78
2021/08/01 07:09:18;;;;;;;12.77;11.07;;;;;;;29.92;52.03;94654.91;4999147;28;20092;-79
2021/08/01 07:11:43;;;;;;;13.98;10.85;;;;;;;31.76;49.87;94652.59;5006513;28;20068;-79
2021/08/01 07:14:09;;;;;;;18.73;10.38;;;;;;;31.75;49.42;94656.38;4990809;28;20030;-79
2021/08/01 07:16:41;;;;;;;10.70;9.65;;;;;;;33.13;44.51;94654.63;5006551;28;20041;-78
2021/08/01 07:19:07;;;;;;;12.50;9.65;;;;;;;35.00;41.46;94652.34;5008737;28;20026;-77
2021/08/01 07:21:32;;;;;;;10.00;8.85;;;;;;;36.92;38.28;94653.47;5008104;28;20029;-78
2021/08/01 07:23:57;;;;;;;12.13;8.65;;;;;;;38.39;35.89;94646.78;5007723;28;20037;-79
2021/08/01 07:26:23;;;;;;;10.73;9.55;;;;;;;37.94;34.97;94647.28;5007514;28;20022;-78
2021/08/01 07:28:48;;;;;;;11.20;9.10;;;;;;;36.71;37.25;94644.78;5005167;28;20018;-78
2021/08/01 07:31:14;;;;;;;11.68;9.50;;;;;;;37.82;35.44;94647.34;5003058;28;20577;-78
2021/08/01 07:33:39;;;;;;;13.07;10.20;;;;;;;37.03;38.11;94650.28;5001050;28;20036;-79
2021/08/01 07:36:05;;;;;;;12.82;9.98;;;;;;;32.28;44.60;94647.34;5006050;28;20038;-80
2021/08/01 07:38:30;;;;;;;10.95;9.85;;;;;;;31.94;47.43;94649.97;5003696;28;20030;-80
2021/08/01 07:40:56;;;;;;;11.20;9.90;;;;;;;30.69;50.26;94653.72;4984328;28;20038;-78
2021/08/01 07:43:21;;;;;;;11.77;10.68;;;;;;;31.36;49.84;94651.00;5003364;28;20038;-79
2021/08/01 07:45:46;;;;;;;13.10;10.57;;;;;;;31.69;50.67;94657.59;4981001;28;20484;-80
2021/08/01 07:48:12;;;;;;;15.02;11.13;;;;;;;29.97;53.19;94657.44;5007002;28;20066;-78
2021/08/01 07:50:37;;;;;;;11.55;9.52;;;;;;;31.07;52.03;94662.19;4988452;28;20049;-79
2021/08/01 07:53:03;;;;;;;11.75;10.57;;;;;;;29.44;53.74;94657.94;5008276;28;20490;-78
2021/08/01 07:55:28;;;;;;;10.32;9.05;;;;;;;30.75;51.21;94652.50;5006878;28;20033;-81
2021/08/01 07:57:55;;;;;;;11.30;10.32;;;;;;;30.94;50.60;94656.88;5008515;28;20161;-79
2021/08/01 08:00:21;;;;;;;13.10;10.95;;;;;;;30.87;52.90;94653.81;5007720;28;20060;-79
2021/08/01 08:02:46;;;;;;;12.98;9.60;;;;;;;30.75;52.27;94649.03;5007994;28;20596;-79
2021/08/01 08:05:12;;;;;;;12.63;8.52;;;;;;;31.28;51.78;94646.38;5008358;28;20037;-79
2021/08/01 08:07:38;;;;;;;10.90;9.18;;;;;;;31.57;51.75;94646.69;5005643;28;20029;-79
2021/08/01 08:10:04;;;;;;;10.93;9.90;;;;;;;30.87;53.41;94643.91;5007930;28;20482;-78
2021/08/01 08:12:29;;;;;;;11.48;9.68;;;;;;;31.51;50.53;94639.91;4989149;28;20025;-80
2021/08/01 08:14:55;;;;;;;13.05;9.13;;;;;;;31.28;50.50;94651.72;5009520;28;20420;-80
2021/08/01 08:17:20;;;;;;;11.20;8.98;;;;;;;31.10;51.91;94647.38;5010621;28;20088;-80
2021/08/01 08:19:46;;;;;;;10.63;8.93;;;;;;;31.53;48.85;94645.72;5012007;28;20029;-80
2021/08/01 08:22:11;;;;;;;9.65;8.82;;;;;;;31.01;49.82;94646.56;5011470;28;20034;-79
2021/08/01 08:24:37;;;;;;;13.18;9.20;;;;;;;30.81;49.00;94647.81;5011005;28;20026;-81
2021/08/01 08:27:02;;;;;;;11.20;8.43;;;;;;;30.04;50.91;94639.13;5011367;28;20035;-79
2021/08/01 08:29:28;;;;;;;13.65;11.10;;;;;;;29.55;52.90;94637.16;4990019;28;20075;-79
2021/08/01 08:31:54;;;;;;;13.40;8.65;;;;;;;29.72;52.98;94632.81;5008908;28;20479;-78
2021/08/01 08:34:21;;;;;;;13.98;9.10;;;;;;;31.34;47.77;94624.50;5008500;28;20057;-78
2021/08/01 08:36:47;;;;;;;9.45;8.50;;;;;;;31.59;49.90;94630.31;4977811;28;20025;-80
2021/08/01 08:39:14;;;;;;;10.60;9.55;;;;;;;31.16;50.31;94630.09;5008941;28;20053;-79
2021/08/01 08:41:40;;;;;;;13.00;9.70;;;;;;;30.98;52.59;94631.09;5010122;28;20030;-80
2021/08/01 08:44:05;;;;;;;13.40;9.57;;;;;;;32.03;49.94;94632.00;4993634;28;20291;-80
2021/08/01 08:46:34;;;;;;;10.38;9.13;;;;;;;31.82;50.15;94637.19;5010138;28;20034;-80
2021/08/01 08:48:59;;;;;;;10.30;9.18;;;;;;;31.60;48.67;94632.66;4994149;28;20021;-76
2021/08/01 08:51:25;;;;;;;9.35;8.38;;;;;;;32.40;50.13;94620.69;4975799;28;20049;-80
2021/08/01 08:53:50;;;;;;;11.52;9.77;;;;;;;31.44;49.95;94619.97;4993938;28;20468;-79
2021/08/01 08:56:16;;;;;;;10.82;9.57;;;;;;;31.88;49.29;94625.97;4992115;28;20041;-80
2021/08/01 08:58:42;;;;;;;15.25;9.20;;;;;;;32.22;48.17;94611.88;5011230;28;20041;-80
2021/08/01 09:01:07;;;;;;;10.27;9.18;;;;;;;32.35;47.54;94610.91;4993010;28;20050;-80
2021/08/01 09:03:33;;;;;;;10.40;9.48;;;;;;;31.70;49.11;94605.59;4992615;28;20018;-80
2021/08/01 09:05:59;;;;;;;10.25;9.32;;;;;;;31.85;49.12;94594.44;5010917;28;20026;-80
2021/08/01 09:08:26;;;;;;;12.13;9.15;;;;;;;31.50;50.06;94590.09;4991681;28;20053;-80
2021/08/01 09:10:54;;;;;;;10.70;9.48;;;;;;;31.12;49.83;94586.28;4977597;28;20112;-80
2021/08/01 09:13:54;;;;;;;12.93;8.80;;;;;;;31.52;48.07;94577.19;5009334;28;20021;-80
2021/08/01 09:16:22;;;;;;;11.40;8.38;;;;;;;32.07;47.03;94580.16;4992340;28;20026;-79
2021/08/01 09:18:47;;;;;;;10.50;8.18;;;;;;;32.31;46.47;94575.09;4993044;28;20042;-80
2021/08/01 09:21:32;;;;;;;13.20;8.68;;;;;;;32.68;48.38;94575.56;5004171;28;20052;-80
2021/08/01 09:23:58;;;;;;;14.85;8.23;;;;;;;32.67;48.63;94574.78;4976555;28;20038;-80
2021/08/01 09:26:24;;;;;;;13.13;8.73;;;;;;;32.40;48.86;94572.41;5008267;28;20034;-80
2021/08/01 09:29:04;;;;;;;10.52;8.85;;;;;;;32.51;48.04;94576.34;5005875;28;20026;-76
2021/08/01 09:31:29;;;;;;;15.20;8.38;;;;;;;32.53;47.11;94566.06;4986964;28;20041;-78
2021/08/01 09:33:55;;;;;;;10.90;8.70;;;;;;;32.50;46.86;94566.72;5009432;28;20490;-80
2021/08/01 09:36:22;;;;;;;11.55;9.57;;;;;;;31.34;47.02;94559.44;4973477;28;20442;-76
2021/08/01 09:39:05;;;;;;;8.98;8.07;;;;;;;32.08;47.98;94552.22;4972050;28;20034;-77
2021/08/01 09:41:33;;;;;;;14.93;10.15;;;;;;;33.07;47.44;94555.72;4973848;28;20516;-78
2021/08/01 09:44:00;;;;;;;10.90;9.48;;;;;;;33.23;44.76;94552.19;4989829;28;20411;-79
2021/08/01 09:46:45;;;;;;;7.95;7.15;;;;;;;32.44;45.80;94557.25;4990771;28;20038;-78
2021/08/01 09:49:18;;;;;;;12.43;9.02;;;;;;;32.93;45.10;94560.50;4973277;28;20022;-79
2021/08/01 09:51:45;;;;;;;9.82;7.47;;;;;;;32.52;40.58;94556.47;4989076;28;20027;-79
2021/08/01 09:54:11;;;;;;;10.50;7.38;;;;;;;32.95;40.91;94559.06;4990418;28;20030;-81
2021/08/01 09:56:59;;;;;;;8.90;7.32;;;;;;;33.38;41.35;94550.88;4971656;28;20057;-81
2021/08/01 09:59:28;;;;;;;11.77;6.93;;;;;;;33.34;41.07;94544.56;4972590;28;20113;-84
2021/08/01 10:01:58;;;;;;;10.27;7.13;;;;;;;33.25;42.83;94546.50;4973196;28;20030;-79
2021/08/01 10:04:42;;;;;;;8.93;6.70;;;;;;;33.26;41.46;94542.72;4982735;28;20014;-80
2021/08/01 10:07:12;;;;;;;8.30;7.50;;;;;;;33.38;42.90;94540.13;5007804;28;20030;-80
2021/08/01 10:09:39;;;;;;;12.00;7.88;;;;;;;33.35;42.88;94535.41;5006274;28;20046;-79
2021/08/01 10:12:05;;;;;;;11.18;7.40;;;;;;;33.11;41.93;94529.81;5007582;28;20057;-80
2021/08/01 10:14:30;;;;;;;12.55;7.72;;;;;;;33.17;42.32;94518.56;5007460;28;20026;-80
2021/08/01 10:16:56;;;;;;;9.38;8.38;;;;;;;33.48;44.00;94502.16;4989957;28;20556;-79
2021/08/01 10:19:22;;;;;;;10.55;7.93;;;;;;;33.62;40.41;94504.63;5008329;28;20044;-79
2021/08/01 10:21:49;;;;;;;12.43;7.80;;;;;;;33.23;41.17;94503.84;4989514;28;20579;-79
2021/08/01 10:24:15;;;;;;;10.85;7.35;;;;;;;33.21;39.95;94495.34;4990535;28;20117;-79
2021/08/01 10:26:47;;;;;;;8.82;7.53;;;;;;;33.02;41.79;94494.13;5004075;28;20030;-79
2021/08/01 10:29:12;;;;;;;9.82;7.45;;;;;;;33.62;42.92;94497.31;4988353;28;20092;-79
2021/08/01 10:31:43;;;;;;;9.40;8.48;;;;;;;33.83;44.34;94489.28;5002924;28;20037;-79
2021/08/01 10:34:15;;;;;;;11.23;7.65;;;;;;;33.89;42.13;94491.44;5007260;28;20034;-81
2021/08/01 10:36:43;;;;;;;9.13;7.50;;;;;;;33.85;40.01;94484.34;4990035;28;20417;-80
2021/08/01 10:39:12;;;;;;;11.77;8.00;;;;;;;33.95;40.07;94483.16;4973114;28;20080;-81
2021/08/01 10:41:37;;;;;;;12.07;8.27;;;;;;;34.12;39.23;94491.13;4990181;28;20030;-80
2021/08/01 10:44:12;;;;;;;14.75;6.75;;;;;;;33.78;39.31;94487.56;4989454;28;20407;-80
2021/08/01 10:46:38;;;;;;;11.52;6.65;;;;;;;33.71;38.01;94479.25;4988916;28;20071;-79
2021/08/01 10:49:04;;;;;;;8.55;6.75;;;;;;;33.60;39.77;94482.63;4989721;28;20026;-79
2021/08/01 10:51:30;;;;;;;8.98;6.60;;;;;;;34.03;38.08;94483.13;4988003;28;20041;-79
2021/08/01 10:54:31;;;;;;;9.52;6.50;;;;;;;34.31;38.30;94484.13;4989409;28;20435;-80
2021/08/01 10:57:16;;;;;;;9.90;7.10;;;;;;;34.32;35.92;94482.25;4942744;29;20031;-79
2021/08/01 10:59:45;;;;;;;7.20;5.45;;;;;;;34.11;36.06;94479.56;5001337;28;20411;-79
2021/08/01 11:02:14;;;;;;;8.57;5.80;;;;;;;34.25;34.55;94472.03;5006917;28;20034;-79
2021/08/01 11:04:39;;;;;;;9.88;6.10;;;;;;;34.23;37.69;94457.34;5006557;28;20076;-79
2021/08/01 11:07:05;;;;;;;6.65;6.03;;;;;;;34.34;34.56;94463.84;4989167;28;20061;-80
2021/08/01 11:09:30;;;;;;;10.98;5.90;;;;;;;34.46;33.59;94460.41;4988548;28;20057;-79
2021/08/01 11:12:32;;;;;;;6.38;5.60;;;;;;;34.28;32.46;94449.03;4988862;28;20042;-78
2021/08/01 11:14:57;;;;;;;7.88;5.55;;;;;;;34.50;34.04;94440.56;5007014;28;20037;-79
2021/08/01 11:17:51;;;;;;;7.85;6.43;;;;;;;35.04;36.93;94443.09;5005279;28;20041;-80
2021/08/01 11:20:16;;;;;;;6.43;5.25;;;;;;;34.68;34.30;94441.19;5006532;28;20037;-81
2021/08/01 11:22:42;;;;;;;12.65;5.78;;;;;;;34.41;30.42;94429.13;5002814;28;20026;-80
2021/08/01 11:25:23;;;;;;;4.90;4.35;;;;;;;34.67;26.22;94429.63;5005403;28;20049;-80
2021/08/01 11:28:07;;;;;;;5.03;4.45;;;;;;;34.88;25.74;94427.63;5005785;28;20565;-80
2021/08/01 11:30:54;;;;;;;5.70;4.25;;;;;;;34.77;26.93;94426.50;5002786;28;20029;-80
2021/08/01 11:33:35;;;;;;;6.40;4.78;;;;;;;34.62;26.86;94429.84;5001394;28;20498;-78
2021/08/01 11:36:13;;;;;;;5.38;4.50;;;;;;;35.16;30.21;94421.59;5004602;28;20038;-80
2021/08/01 11:38:38;;;;;;;5.60;4.57;;;;;;;35.35;27.93;94416.41;5006432;28;20112;-79
2021/08/01 11:41:04;;;;;;;5.63;4.93;;;;;;;35.28;30.07;94416.19;5007028;28;20149;-79
2021/08/01 11:43:29;;;;;;;6.55;5.45;;;;;;;35.02;28.96;94415.72;5006204;28;20113;-79
2021/08/01 11:45:59;;;;;;;6.85;5.03;;;;;;;35.35;31.42;94421.78;5002616;28;20034;-79
2021/08/01 11:48:24;;;;;;;6.93;4.93;;;;;;;35.65;29.96;94417.69;4987589;28;20101;-81
2021/08/01 11:50:50;;;;;;;8.60;5.30;;;;;;;34.86;28.81;94411.03;4991087;28;20462;-79
2021/08/01 11:53:15;;;;;;;6.03;5.40;;;;;;;34.86;29.06;94407.53;5008861;28;20030;-79
2021/08/01 11:55:47;;;;;;;6.78;5.40;;;;;;;35.59;30.32;94402.88;5007586;28;20439;-80
2021/08/01 11:58:13;;;;;;;7.03;5.20;;;;;;;35.51;30.20;94403.78;4988774;28;20068;-80
2021/08/01 12:00:39;;;;;;;6.18;5.40;;;;;;;35.17;29.96;94394.28;4986368;28;20103;-80
2021/08/01 12:03:04;;;;;;;8.88;5.60;;;;;;;35.43;33.03;94402.00;4966777;28;20022;-80
2021/08/01 12:05:50;;;;;;;8.07;6.03;;;;;;;35.24;30.71;94402.59;4984807;28;20025;-80
2021/08/01 12:08:29;;;;;;;8.48;5.70;;;;;;;35.08;32.02;94399.00;5008481;28;20125;-81
2021/08/01 12:11:16;;;;;;;5.75;5.25;;;;;;;35.70;32.07;94392.41;4995300;28;20057;-82
2021/08/01 12:14:01;;;;;;;14.27;6.00;;;;;;;35.07;30.92;94393.94;4992800;28;20030;-77
2021/08/01 12:16:27;;;;;;;6.95;5.32;;;;;;;35.52;32.91;94389.16;4995043;28;20026;-77
2021/08/01 12:18:52;;;;;;;6.43;5.78;;;;;;;35.32;30.81;94385.50;5007848;28;20018;-77
2021/08/01 12:21:29;;;;;;;8.27;5.70;;;;;;;35.59;32.00;94388.59;5010094;28;20033;-77
2021/08/01 12:23:55;;;;;;;7.03;5.80;;;;;;;35.31;30.35;94377.78;5007818;28;20101;-76
2021/08/01 12:26:39;;;;;;;8.27;6.05;;;;;;;35.59;30.48;94384.00;5009710;28;20052;-76
2021/08/01 12:29:05;;;;;;;6.75;6.05;;;;;;;35.51;30.73;94379.53;4992437;28;20100;-77
2021/08/01 12:31:31;;;;;;;6.40;5.90;;;;;;;35.29;31.38;94380.00;5008640;28;20034;-77
2021/08/01 12:33:57;;;;;;;7.85;5.88;;;;;;;35.64;33.03;94386.44;5009788;28;20014;-77
2021/08/01 12:36:28;;;;;;;7.60;5.55;;;;;;;35.30;28.77;94378.88;4991650;28;20026;-76
2021/08/01 12:38:54;;;;;;;8.15;5.80;;;;;;;35.70;30.84;94371.63;5007714;28;20022;-77
2021/08/01 12:41:22;;;;;;;8.60;5.22;;;;;;;35.50;29.17;94366.38;5008787;28;20026;-76
2021/08/01 12:43:48;;;;;;;;;;;;;;;35.99;30.44;94365.09;5009561;28;20112;-77
2021/08/01 12:46:17;;;;;;;6.15;5.43;;;;;;;35.90;30.74;94362.53;5009766;28;20016;-78
2021/08/01 12:48:43;;;;;;;5.57;5.07;;;;;;;35.87;29.58;94362.44;5008734;28;20113;-76
2021/08/01 12:51:08;;;;;;;8.32;5.30;;;;;;;35.24;28.77;94366.78;4991713;28;20113;-77
2021/08/01 12:53:36;;;;;;;7.18;5.65;;;;;;;35.36;29.52;94355.97;5008518;28;20029;-79
2021/08/01 12:56:02;;;;;;;10.52;5.55;;;;;;;35.57;30.55;94343.09;5007778;28;20450;-78
2021/08/01 12:58:31;;;;;;;6.60;5.57;;;;;;;35.63;30.69;94355.25;5008988;28;20034;-77
2021/08/01 13:00:57;;;;;;;7.78;6.10;;;;;;;35.67;31.36;94353.44;4989917;28;20034;-77
2021/08/01 13:03:35;;;;;;;6.60;6.00;;;;;;;35.63;31.25;94351.75;5009742;28;20026;-79
2021/08/01 13:06:01;;;;;;;6.35;5.85;;;;;;;35.54;29.23;94351.09;5008626;28;20065;-80
2021/08/01 13:08:39;;;;;;;5.55;5.05;;;;;;;35.55;28.94;94339.16;5008742;28;20523;-80
2021/08/01 13:11:06;;;;;;;5.82;5.25;;;;;;;35.75;30.17;94339.00;5006588;28;20046;-79
2021/08/01 13:13:31;;;;;;;8.40;6.00;;;;;;;35.36;30.97;94327.09;5003494;28;20030;-80
2021/08/01 13:16:01;;;;;;;6.82;5.53;;;;;;;35.35;30.52;94335.56;5007096;28;20304;-80
2021/08/01 13:18:31;;;;;;;6.55;5.85;;;;;;;35.72;31.89;94336.22;4985521;28;20109;-80
2021/08/01 13:21:17;;;;;;;7.95;5.90;;;;;;;35.81;31.05;94332.22;4991903;28;20437;-79
2021/08/01 13:23:50;;;;;;;7.28;5.63;;;;;;;35.43;29.41;94326.53;5007571;28;20443;-78
2021/08/01 13:26:24;;;;;;;6.85;5.50;;;;;;;35.81;29.96;94328.75;4991199;28;20480;-77
2021/08/01 13:28:58;;;;;;;8.90;5.07;;;;;;;35.86;28.60;94321.22;5008401;28;20095;-78
2021/08/01 13:31:28;;;;;;;5.78;5.10;;;;;;;35.82;28.42;94322.22;4991266;28;20057;-78
2021/08/01 13:34:00;;;;;;;6.30;5.40;;;;;;;35.49;28.78;94317.06;5009250;28;20083;-78
2021/08/01 13:36:43;;;;;;;7.00;5.70;;;;;;;35.99;29.13;94315.75;4990612;28;20058;-78
2021/08/01 13:39:10;;;;;;;7.13;5.07;;;;;;;36.06;28.15;94315.94;4990497;28;20450;-79
2021/08/01 13:41:39;;;;;;;9.65;4.53;;;;;;;36.17;27.55;94319.69;4990898;28;20752;-76
2021/08/01 13:44:14;;;;;;;7.57;5.38;;;;;;;36.03;25.41;94311.22;5007949;28;20053;-77
2021/08/01 13:46:41;;;;;;;5.97;5.35;;;;;;;35.85;27.22;94316.16;5008378;28;20033;-78
2021/08/01 13:49:06;;;;;;;5.88;5.28;;;;;;;36.17;28.76;94311.59;4990327;28;20053;-78
2021/08/01 13:51:34;;;;;;;6.88;4.95;;;;;;;36.02;27.24;94307.72;5008592;28;20479;-78
2021/08/01 13:54:00;;;;;;;7.13;5.10;;;;;;;36.00;26.59;94311.88;5007093;28;20034;-78
2021/08/01 13:56:27;;;;;;;6.00;5.30;;;;;;;35.91;27.57;94309.38;4974763;28;20026;-79
2021/08/01 13:58:55;;;;;;;5.63;5.13;;;;;;;35.79;27.97;94307.53;4990466;28;20064;-78
2021/08/01 14:01:21;;;;;;;6.72;5.47;;;;;;;36.03;25.00;94311.97;4989964;28;20448;-78
2021/08/01 14:03:47;;;;;;;10.80;5.50;;;;;;;36.22;27.49;94301.31;5008451;28;20105;-79
2021/08/01 14:06:13;;;;;;;7.47;5.80;;;;;;;36.29;29.14;94303.41;5007410;28;20037;-81
2021/08/01 14:08:38;;;;;;;8.15;5.70;;;;;;;36.09;27.79;94299.81;5007634;28;20526;-78
2021/08/01 14:11:04;;;;;;;8.23;5.50;;;;;;;36.24;29.20;94303.69;5007219;28;20096;-79
2021/08/01 14:13:29;;;;;;;6.88;5.10;;;;;;;36.13;28.02;94292.59;4989343;28;20053;-80
2021/08/01 14:15:57;;;;;;;11.57;5.35;;;;;;;36.15;28.85;94294.97;5005778;28;20496;-78
2021/08/01 14:18:22;;;;;;;7.13;5.07;;;;;;;36.33;27.68;94296.19;4990352;28;20679;-79
2021/08/01 14:20:48;;;;;;;8.02;5.15;;;;;;;36.13;25.05;94283.72;4984884;28;20037;-80
2021/08/01 14:23:13;;;;;;;10.60;5.40;;;;;;;35.99;27.37;94288.75;4989146;28;20029;-80
2021/08/01 14:25:39;;;;;;;7.35;5.20;;;;;;;36.14;27.92;94288.00;5008406;28;20029;-79
2021/08/01 14:28:04;;;;;;;8.00;5.20;;;;;;;36.13;28.12;94278.34;4965773;28;20429;-80
2021/08/01 14:30:30;;;;;;;6.72;5.20;;;;;;;36.22;29.16;94281.66;4954247;28;20037;-79
2021/08/01 14:32:55;;;;;;;6.30;5.10;;;;;;;35.92;27.03;94276.66;4953945;28;20448;-80
2021/08/01 14:35:21;;;;;;;6.90;5.20;;;;;;;35.89;28.32;94279.25;4954216;28;20025;-79
2021/08/01 14:37:47;;;;;;;8.27;5.13;;;;;;;36.06;27.46;94275.47;4969564;28;20034;-80
2021/08/01 14:40:16;;;;;;;8.07;5.60;;;;;;;36.10;28.53;94269.03;4954161;28;20087;-79
2021/08/01 14:42:43;;;;;;;5.88;5.07;;;;;;;36.11;26.31;94269.81;5000048;28;20088;-79
2021/08/01 14:45:09;;;;;;;6.80;5.53;;;;;;;36.33;26.32;94261.09;4988837;28;20458;-79
2021/08/01 14:47:36;;;;;;;6.07;5.28;;;;;;;36.11;26.32;94272.50;4989865;28;20026;-79
2021/08/01 14:50:15;;;;;;;6.00;4.93;;;;;;;36.24;27.28;94268.59;4989142;28;20026;-79
2021/08/01 14:53:01;;;;;;;6.75;5.45;;;;;;;36.22;26.48;94260.84;5007008;28;20380;-79
2021/08/01 14:55:27;;;;;;;7.35;5.75;;;;;;;36.04;25.88;94254.19;5002327;28;20100;-78
2021/08/01 14:58:30;;;;;;;7.30;5.68;;;;;;;35.90;25.70;94262.72;4986674;28;20034;-79
2021/08/01 15:01:12;;;;;;;9.07;5.60;;;;;;;35.97;26.46;94264.81;4987050;28;20058;-78
2021/08/01 15:03:53;;;;;;;6.78;5.53;;;;;;;35.88;25.00;94259.59;5000743;28;20466;-79
2021/08/01 15:06:37;;;;;;;6.55;5.45;;;;;;;35.92;27.02;94263.16;5001285;28;20033;-78
2021/08/01 15:09:19;;;;;;;7.50;5.60;;;;;;;35.71;28.87;94251.03;4979412;28;20124;-79
2021/08/01 15:11:49;;;;;;;11.27;5.78;;;;;;;35.69;26.78;94256.78;4977604;28;20129;-79
2021/08/01 15:14:18;;;;;;;5.82;5.30;;;;;;;35.45;26.09;94248.78;4988671;28;20037;-79
2021/08/01 15:16:47;;;;;;;12.60;5.90;;;;;;;35.66;26.07;94254.78;4989231;28;20069;-78
2021/08/01 15:19:17;;;;;;;;;;;;;;;35.70;25.50;94252.97;4990045;28;20026;-78
2021/08/01 15:21:43;;;;;;;11.35;5.88;;;;;;;35.72;25.24;94245.31;4989942;28;19971;-78
2021/08/01 15:24:27;;;;;;;13.40;6.00;;;;;;;35.60;27.95;94250.78;5006018;28;20064;-79
2021/08/01 15:26:53;;;;;;;8.10;6.00;;;;;;;35.60;28.46;94244.59;4989955;28;20041;-78
2021/08/01 15:29:18;;;;;;;9.73;6.18;;;;;;;35.46;28.64;94244.97;5001222;28;20033;-78
2021/08/01 15:31:44;;;;;;;7.90;5.18;;;;;;;35.38;26.21;94248.63;4995347;28;20061;-78
2021/08/01 15:34:10;;;;;;;8.27;5.70;;;;;;;35.36;27.83;94240.88;5002496;28;20014;-78
2021/08/01 15:36:36;;;;;;;10.57;5.95;;;;;;;35.08;29.47;94244.66;4997701;28;20018;-78
2021/08/01 15:39:02;;;;;;;7.22;5.88;;;;;;;34.61;30.62;94239.84;5000690;28;20033;-77
2021/08/01 15:41:28;;;;;;;11.32;5.68;;;;;;;34.34;29.64;94243.22;4980671;28;20448;-78
2021/08/01 15:43:56;;;;;;;8.07;5.63;;;;;;;34.96;25.96;94237.41;4999236;28;20025;-78
2021/08/01 15:46:22;;;;;;;7.13;5.70;;;;;;;34.51;32.32;94245.66;4980940;28;20025;-77
2021/08/01 15:48:47;;;;;;;9.80;6.70;;;;;;;34.02;36.74;94241.38;4999229;28;20026;-77
2021/08/01 15:51:13;;;;;;;13.25;6.03;;;;;;;33.77;37.54;94244.06;4964657;28;20035;-78
2021/08/01 15:53:48;;;;;;;14.85;6.72;;;;;;;33.68;40.32;94242.59;5001673;28;20033;-78
2021/08/01 15:56:19;;;;;;;9.93;5.85;;;;;;;33.73;39.28;94248.53;4998985;28;20026;-78
2021/08/01 15:59:05;;;;;;;6.85;5.78;;;;;;;33.83;36.39;94244.63;4962852;28;20492;-77
2021/08/01 16:01:37;;;;;;;12.70;6.35;;;;;;;33.39;45.85;94246.19;4979439;28;20117;-77
2021/08/01 16:04:27;;;;;;;7.22;6.47;;;;;;;32.95;44.76;94252.22;4996661;28;20484;-78
2021/08/01 16:06:54;;;;;;;6.90;6.30;;;;;;;32.82;43.73;94246.78;5004982;28;20510;-78
2021/08/01 16:09:49;;;;;;;8.20;6.13;;;;;;;32.62;46.67;94247.59;5006554;28;20133;-78
2021/08/01 16:12:17;;;;;;;11.27;7.70;;;;;;;32.54;44.36;94242.22;5005950;28;20030;-78
2021/08/01 16:14:43;;;;;;;9.82;7.15;;;;;;;32.48;47.79;94244.31;5006183;28;20391;-77
2021/08/01 16:17:24;;;;;;;14.45;6.70;;;;;;;32.34;49.04;94241.09;5006127;28;20026;-78
2021/08/01 16:19:49;;;;;;;11.70;7.10;;;;;;;32.02;50.00;94236.34;5005884;28;20080;-78
2021/08/01 16:22:14;;;;;;;12.05;6.75;;;;;;;31.97;47.06;94237.31;4989074;28;20022;-78
2021/08/01 16:24:40;;;;;;;7.07;6.38;;;;;;;32.06;46.75;94243.44;5004188;28;20037;-78
2021/08/01 16:27:06;;;;;;;15.25;7.07;;;;;;;31.92;48.49;94242.06;4989030;28;20026;-78
2021/08/01 16:29:32;;;;;;;11.05;8.00;;;;;;;32.02;47.87;94236.34;4988090;28;20030;-78
2021/08/01 16:31:58;;;;;;;10.48;6.05;;;;;;;31.94;48.96;94235.28;5006073;28;20025;-78
2021/08/01 16:34:26;;;;;;;11.13;8.13;;;;;;;31.87;49.08;94237.66;5004524;28;20050;-78
2021/08/01 16:36:52;;;;;;;6.80;6.13;;;;;;;31.86;48.58;94238.75;4975020;28;20037;-77
2021/08/01 16:39:17;;;;;;;8.25;6.85;;;;;;;31.72;50.63;94240.88;5010062;28;20419;-78